createdAt,value
2023-04-14T00:00:17.515Z,7.10
2023-04-14T00:02:45.912Z,7.20
2023-04-14T00:05:15.592Z,7.10
2023-04-14T00:07:43.784Z,7.20
2023-04-14T00:10:12.265Z,7.10
2023-04-14T00:12:40.400Z,7.10
2023-04-14T00:15:09.570Z,7.10
2023-04-14T00:17:37.692Z,7.10
2023-04-14T00:20:06.716Z,7.10
2023-04-14T00:22:36.168Z,7.10
2023-04-14T00:25:04.323Z,7.10
2023-04-14T00:27:32.501Z,7.10
2023-04-14T00:30:00.528Z,7.20
2023-04-14T00:32:28.798Z,7.10
2023-04-14T00:34:57.377Z,7.10
2023-04-14T00:37:25.515Z,7.10
2023-04-14T00:39:55.141Z,7.10
2023-04-14T00:42:23.156Z,7.00
2023-04-14T00:44:51.412Z,7.00
2023-04-14T00:47:19.673Z,7.00
2023-04-14T00:49:47.867Z,7.00
2023-04-14T00:52:16.211Z,7.00
2023-04-14T00:54:44.675Z,7.00
2023-04-14T00:57:14.463Z,6.90
2023-04-14T00:59:42.590Z,6.90
2023-04-14T01:02:11.267Z,6.90
2023-04-14T01:04:53.046Z,6.90
2023-04-14T01:07:24.206Z,7.00
2023-04-14T01:09:53.757Z,7.00
2023-04-14T01:12:40.153Z,7.00
2023-04-14T01:15:16.137Z,7.00
2023-04-14T01:17:50.011Z,7.00
2023-04-14T01:20:28.331Z,7.00
2023-04-14T01:23:05.688Z,7.00
2023-04-14T01:26:01.216Z,7.00
2023-04-14T01:28:46.804Z,7.00
2023-04-14T01:31:24.032Z,7.00
2023-04-14T01:33:58.722Z,7.10
2023-04-14T01:36:35.468Z,7.00
2023-04-14T01:39:09.313Z,7.00
2023-04-14T01:41:43.311Z,7.00
2023-04-14T01:44:12.199Z,7.00
2023-04-14T01:46:44.043Z,7.00
2023-04-14T01:49:13.074Z,7.00
2023-04-14T01:51:44.412Z,7.00
2023-04-14T01:54:14.279Z,6.90
2023-04-14T01:56:44.493Z,6.90
2023-04-14T01:59:13.506Z,6.90
2023-04-14T02:01:44.112Z,6.90
2023-04-14T02:04:13.711Z,6.90
2023-04-14T02:06:42.749Z,6.90
2023-04-14T02:09:13.157Z,6.90
2023-04-14T02:11:43.250Z,6.80
2023-04-14T02:14:13.918Z,6.70
2023-04-14T02:16:45.178Z,6.70
2023-04-14T02:19:15.075Z,6.70
2023-04-14T02:21:44.389Z,6.70
2023-04-14T02:24:13.303Z,6.70
2023-04-14T02:26:49.669Z,6.70
2023-04-14T02:29:23.027Z,6.70
2023-04-14T02:31:58.610Z,6.70
2023-04-14T02:34:31.400Z,6.60
2023-04-14T02:37:03.911Z,6.60
2023-04-14T02:39:48.164Z,6.60
2023-04-14T02:42:17.640Z,6.60
2023-04-14T02:44:51.590Z,6.60
2023-04-14T02:47:26.749Z,6.50
2023-04-14T02:49:59.822Z,6.50
2023-04-14T02:52:31.664Z,6.50
2023-04-14T02:55:01.230Z,6.40
2023-04-14T02:57:31.233Z,6.40
2023-04-14T03:00:00.184Z,6.40
2023-04-14T03:02:30.662Z,6.30
2023-04-14T03:05:05.441Z,6.20
2023-04-14T03:08:04.885Z,6.20
2023-04-14T03:10:34.103Z,6.20
2023-04-14T03:13:05.777Z,6.20
2023-04-14T03:15:34.218Z,6.20
2023-04-14T03:18:04.942Z,6.20
2023-04-14T03:20:35.954Z,6.10
2023-04-14T03:23:06.106Z,6.10
2023-04-14T03:25:41.538Z,6.10
2023-04-14T03:28:19.517Z,6.10
2023-04-14T03:30:54.013Z,6.10
2023-04-14T03:33:27.822Z,6.00
2023-04-14T03:35:58.556Z,6.00
2023-04-14T03:38:29.413Z,6.00
2023-04-14T03:41:01.182Z,6.00
2023-04-14T03:43:30.625Z,6.00
2023-04-14T03:46:06.382Z,6.00
2023-04-14T03:48:42.542Z,6.00
2023-04-14T03:51:14.940Z,6.00
2023-04-14T03:53:46.448Z,6.00
2023-04-14T03:56:19.214Z,5.90
2023-04-14T03:58:50.624Z,5.90
2023-04-14T04:01:20.488Z,5.90
2023-04-14T04:03:50.530Z,5.80
2023-04-14T04:06:19.007Z,5.80
2023-04-14T04:08:50.535Z,5.80
2023-04-14T04:11:21.402Z,5.80
2023-04-14T04:13:53.906Z,5.80
2023-04-14T04:16:22.667Z,5.80
2023-04-14T04:18:53.133Z,5.70
2023-04-14T04:21:29.833Z,5.70
2023-04-14T04:24:00.221Z,5.60
2023-04-14T04:26:29.243Z,5.60
2023-04-14T04:28:58.113Z,5.50
2023-04-14T04:31:29.202Z,5.50
2023-04-14T04:33:59.157Z,5.50
2023-04-14T04:36:27.805Z,5.50
2023-04-14T04:38:56.990Z,5.40
2023-04-14T04:41:28.335Z,5.40
2023-04-14T04:43:59.061Z,5.40
2023-04-14T04:46:45.472Z,5.40
2023-04-14T04:49:17.377Z,5.40
2023-04-14T04:51:47.232Z,5.40
2023-04-14T04:54:17.667Z,5.40
2023-04-14T04:56:46.376Z,5.40
2023-04-14T04:59:14.484Z,5.40
2023-04-14T05:01:43.029Z,5.40
2023-04-14T05:04:11.723Z,5.50
2023-04-14T05:06:41.399Z,5.50
2023-04-14T05:09:09.513Z,5.50
2023-04-14T05:11:37.636Z,5.50
2023-04-14T05:14:05.789Z,5.50
2023-04-14T05:16:33.898Z,5.50
2023-04-14T05:19:03.091Z,5.50
2023-04-14T05:21:31.337Z,5.50
2023-04-14T05:24:01.081Z,5.50
2023-04-14T05:29:01.102Z,5.50
2023-04-14T05:31:29.475Z,5.50
2023-04-14T05:33:57.508Z,5.50
2023-04-14T05:36:25.585Z,5.50
2023-04-14T05:38:53.632Z,5.50
2023-04-14T05:41:23.607Z,5.50
2023-04-14T05:43:52.300Z,5.50
2023-04-14T05:46:20.311Z,5.50
2023-04-14T05:48:48.442Z,5.50
2023-04-14T05:51:16.652Z,5.50
2023-04-14T05:53:44.718Z,5.50
2023-04-14T05:56:12.928Z,5.50
2023-04-14T05:58:42.317Z,5.50
2023-04-14T06:01:10.763Z,5.50
2023-04-14T06:03:40.496Z,5.50
2023-04-14T06:06:09.413Z,5.50
2023-04-14T06:08:37.471Z,5.40
2023-04-14T06:11:05.832Z,5.40
2023-04-14T06:13:36.111Z,5.40
2023-04-14T06:16:06.306Z,5.40
2023-04-14T06:18:34.504Z,5.50
2023-04-14T06:21:03.058Z,5.40
2023-04-14T06:23:31.617Z,5.40
2023-04-14T06:25:59.793Z,5.50
2023-04-14T06:28:27.894Z,5.50
2023-04-14T06:30:56.012Z,5.40
2023-04-14T06:33:25.440Z,5.40
2023-04-14T06:35:53.483Z,5.50
2023-04-14T06:38:21.599Z,5.50
2023-04-14T06:40:51.901Z,5.50
2023-04-14T06:43:21.243Z,5.50
2023-04-14T06:45:50.926Z,5.50
2023-04-14T06:48:19.135Z,5.60
2023-04-14T06:50:55.493Z,5.50
2023-04-14T06:53:23.735Z,5.50
2023-04-14T06:55:59.380Z,5.50
2023-04-14T06:58:28.128Z,5.60
2023-04-14T07:00:57.417Z,5.60
2023-04-14T07:03:26.876Z,5.60
2023-04-14T07:06:02.954Z,5.60
2023-04-14T07:08:32.823Z,5.60
2023-04-14T07:11:02.004Z,5.70
2023-04-14T07:13:30.829Z,5.70
2023-04-14T07:15:59.194Z,5.70
2023-04-14T07:18:27.310Z,5.70
2023-04-14T07:20:56.876Z,5.80
2023-04-14T07:23:24.914Z,5.80
2023-04-14T07:25:53.702Z,5.80
2023-04-14T07:28:22.117Z,5.80
2023-04-14T07:30:50.711Z,5.90
2023-04-14T07:33:19.974Z,5.90
2023-04-14T07:35:58.679Z,5.90
2023-04-14T07:38:32.351Z,6.00
2023-04-14T07:41:01.349Z,6.00
2023-04-14T07:43:34.752Z,6.00
2023-04-14T07:46:04.524Z,6.10
2023-04-14T07:48:32.782Z,6.10
2023-04-14T07:51:00.864Z,6.10
2023-04-14T07:53:29.379Z,6.10
2023-04-14T07:55:59.037Z,6.20
2023-04-14T07:58:29.255Z,6.20
2023-04-14T08:00:57.786Z,6.20
2023-04-14T08:03:26.047Z,6.20
2023-04-14T08:05:54.242Z,6.20
2023-04-14T08:08:23.156Z,6.30
2023-04-14T08:10:51.257Z,6.30
2023-04-14T08:13:20.708Z,6.30
2023-04-14T08:15:48.967Z,6.30
2023-04-14T08:18:17.028Z,6.30
2023-04-14T08:20:45.373Z,6.30
2023-04-14T08:23:13.430Z,6.30
2023-04-14T08:25:42.323Z,6.30
2023-04-14T08:28:10.356Z,6.30
2023-04-14T08:30:39.933Z,6.30
2023-04-14T08:33:08.540Z,6.30
2023-04-14T08:35:42.316Z,6.30
2023-04-14T08:38:11.595Z,6.30
2023-04-14T08:40:41.232Z,6.30
2023-04-14T08:43:09.378Z,6.30
2023-04-14T08:45:39.150Z,6.30
2023-04-14T08:48:07.525Z,6.40
2023-04-14T08:50:38.817Z,6.40
2023-04-14T08:53:10.740Z,6.40
2023-04-14T08:55:42.067Z,6.40
2023-04-14T08:58:11.527Z,6.40
2023-04-14T09:00:41.242Z,6.40
2023-04-14T09:03:10.068Z,6.50
2023-04-14T09:05:38.597Z,6.50
2023-04-14T09:08:06.749Z,6.50
2023-04-14T09:10:36.864Z,6.60
2023-04-14T09:13:06.660Z,6.70
2023-04-14T09:15:34.765Z,6.60
2023-04-14T09:18:04.234Z,6.70
2023-04-14T09:20:39.709Z,6.70
2023-04-14T09:23:10.546Z,6.70
2023-04-14T09:25:39.772Z,6.70
2023-04-14T09:28:08.348Z,6.70
2023-04-14T09:30:36.460Z,6.80
2023-04-14T09:33:07.690Z,6.80
2023-04-14T09:35:47.496Z,6.80
2023-04-14T09:38:16.746Z,6.80
2023-04-14T09:40:45.406Z,6.80
2023-04-14T09:43:29.256Z,6.80
2023-04-14T09:45:58.971Z,6.80
2023-04-14T09:48:28.641Z,6.80
2023-04-14T09:51:06.626Z,6.80
2023-04-14T09:53:35.832Z,6.80
2023-04-14T09:56:05.963Z,6.70
2023-04-14T09:58:35.464Z,6.70
2023-04-14T10:01:04.591Z,6.70
2023-04-14T10:03:42.077Z,6.70
2023-04-14T10:06:11.408Z,6.70
2023-04-14T10:08:41.896Z,6.70
2023-04-14T10:11:16.549Z,6.70
2023-04-14T10:13:44.891Z,6.70
2023-04-14T10:16:12.947Z,6.70
2023-04-14T10:18:42.405Z,6.70
2023-04-14T10:21:11.426Z,6.80
2023-04-14T10:23:41.185Z,6.90
2023-04-14T10:26:11.435Z,6.90
2023-04-14T10:28:40.880Z,6.90
2023-04-14T10:31:13.123Z,6.90
2023-04-14T10:33:43.056Z,6.90
2023-04-14T10:36:11.547Z,6.90
2023-04-14T10:38:42.229Z,7.00
2023-04-14T10:41:11.190Z,7.00
2023-04-14T10:43:39.937Z,7.00
2023-04-14T10:46:09.872Z,7.10
2023-04-14T10:48:41.294Z,7.10
2023-04-14T10:51:11.867Z,7.10
2023-04-14T10:53:46.274Z,7.20
2023-04-14T10:56:14.870Z,7.20
2023-04-14T10:58:54.571Z,7.30
2023-04-14T11:01:26.595Z,7.30
2023-04-14T11:03:56.292Z,7.30
2023-04-14T11:06:52.231Z,7.40
2023-04-14T11:09:33.206Z,7.40
2023-04-14T11:12:24.262Z,7.50
2023-04-14T11:14:56.562Z,7.50
2023-04-14T11:17:24.677Z,7.50
2023-04-14T11:19:55.650Z,7.40
2023-04-14T13:06:24.531Z,8.00
2023-04-14T13:08:54.249Z,8.10
2023-04-14T13:11:24.072Z,8.10
2023-04-14T13:13:52.659Z,8.10
2023-04-14T13:16:21.499Z,8.10
2023-04-14T13:18:50.435Z,8.20
2023-04-14T13:21:18.771Z,8.20
2023-04-14T13:23:48.129Z,8.30
2023-04-14T13:26:16.968Z,8.30
2023-04-14T13:28:45.967Z,8.40
2023-04-14T13:31:18.201Z,8.50
2023-04-14T13:33:46.338Z,8.60
2023-04-14T13:36:14.361Z,8.60
2023-04-14T13:38:42.864Z,8.60
2023-04-14T13:41:14.419Z,8.60
2023-04-14T13:43:43.175Z,8.60
2023-04-14T13:46:11.369Z,8.50
2023-04-14T13:48:39.453Z,8.50
2023-04-14T13:51:07.540Z,8.40
2023-04-14T13:53:35.530Z,8.40
2023-04-14T13:56:03.568Z,8.30
2023-04-14T13:58:33.343Z,8.30
2023-04-14T14:01:10.601Z,8.30
2023-04-14T14:03:40.712Z,8.30
2023-04-14T14:06:09.091Z,8.40
2023-04-14T14:08:37.928Z,8.40
2023-04-14T14:11:06.985Z,8.40
2023-04-14T14:13:38.586Z,8.40
2023-04-14T14:16:07.356Z,8.50
2023-04-14T14:18:36.677Z,8.50
2023-04-14T14:21:05.289Z,8.40
2023-04-14T14:23:33.295Z,8.50
2023-04-14T14:26:01.283Z,8.50
2023-04-14T14:28:29.330Z,8.60
2023-04-14T14:30:58.798Z,8.50
2023-04-14T14:33:26.782Z,8.40
2023-04-14T14:35:55.187Z,8.30
2023-04-14T14:38:23.332Z,8.30
2023-04-14T14:40:51.464Z,8.30
2023-04-14T14:43:19.474Z,8.30
2023-04-14T14:45:47.492Z,8.30
2023-04-14T14:48:17.089Z,8.40
2023-04-14T14:50:45.172Z,8.40
2023-04-14T14:53:13.350Z,8.40
2023-04-14T14:55:41.461Z,8.40
2023-04-14T14:58:11.958Z,8.40
2023-04-14T15:00:40.240Z,8.40
2023-04-14T15:03:09.202Z,8.40
2023-04-14T15:05:39.450Z,8.40
2023-04-14T15:08:08.434Z,8.40
2023-04-14T15:10:36.803Z,8.40
2023-04-14T15:13:06.067Z,8.40
2023-04-14T15:15:36.064Z,8.40
2023-04-14T15:18:05.263Z,8.40
2023-04-14T15:20:33.688Z,8.50
2023-04-14T15:23:03.139Z,8.50
2023-04-14T15:25:31.234Z,8.60
2023-04-14T15:27:59.297Z,8.60
2023-04-14T15:30:27.521Z,8.70
2023-04-14T15:32:56.205Z,8.70
2023-04-14T15:35:24.802Z,8.70
2023-04-14T15:37:53.060Z,8.80
2023-04-14T15:40:22.721Z,8.80
2023-04-14T15:42:50.832Z,8.80
2023-04-14T15:45:18.969Z,8.80
2023-04-14T15:47:47.236Z,8.80
2023-04-14T15:50:18.595Z,8.80
2023-04-14T15:52:47.161Z,8.80
2023-04-14T15:55:15.474Z,8.80
2023-04-14T15:57:44.867Z,8.70
2023-04-14T16:00:14.343Z,8.70
2023-04-14T16:02:45.870Z,8.70
2023-04-14T16:05:14.375Z,8.70
2023-04-14T16:07:43.696Z,8.70
2023-04-14T16:10:12.977Z,8.70
2023-04-14T16:12:41.278Z,8.70
2023-04-14T16:15:11.636Z,8.60
2023-04-14T16:17:39.685Z,8.60
2023-04-14T16:20:08.354Z,8.50
2023-04-14T16:22:37.152Z,8.50
2023-04-14T16:25:05.903Z,8.50
2023-04-14T16:27:34.192Z,8.50
2023-04-14T16:30:04.238Z,8.50
2023-04-14T16:32:33.696Z,8.50
2023-04-14T16:35:02.383Z,8.40
2023-04-14T16:37:30.732Z,8.40
2023-04-14T16:39:59.085Z,8.30
2023-04-14T16:42:27.528Z,8.20
2023-04-14T16:44:56.605Z,8.20
2023-04-14T16:47:25.524Z,8.10
2023-04-14T16:49:55.199Z,8.10
2023-04-14T16:52:23.370Z,8.00
2023-04-14T16:54:51.550Z,8.00
2023-04-14T16:57:19.789Z,8.00
2023-04-14T16:59:48.750Z,8.00
2023-04-14T17:02:16.926Z,8.00
2023-04-14T17:04:45.734Z,8.00
2023-04-14T17:07:15.463Z,8.00
2023-04-14T17:09:44.169Z,8.00
2023-04-14T17:12:12.270Z,8.00
2023-04-14T17:14:40.538Z,8.00
2023-04-14T17:17:08.800Z,8.00
2023-04-14T17:19:37.552Z,8.00
2023-04-14T17:22:05.545Z,8.00
2023-04-14T17:24:35.124Z,8.00
2023-04-14T17:27:03.799Z,8.00
2023-04-14T17:29:31.872Z,7.90
2023-04-14T17:32:01.114Z,7.90
2023-04-14T17:34:29.684Z,7.90
2023-04-14T17:36:58.790Z,7.90
2023-04-14T17:39:27.797Z,7.80
2023-04-14T17:41:58.429Z,7.80
2023-04-14T17:44:33.600Z,7.80
2023-04-14T17:47:03.080Z,7.80
2023-04-14T17:49:31.513Z,7.80
2023-04-14T17:51:59.704Z,7.80
2023-04-14T17:54:27.778Z,7.80
2023-04-14T17:56:57.697Z,7.80
2023-04-14T17:59:26.285Z,7.80
2023-04-14T18:01:54.795Z,7.80
2023-04-14T18:04:23.098Z,7.80
2023-04-14T18:06:51.319Z,7.80
2023-04-14T18:09:19.834Z,7.80
2023-04-14T18:11:48.070Z,7.80
2023-04-14T18:14:17.470Z,7.80
2023-04-14T18:16:45.838Z,7.80
2023-04-14T18:19:14.513Z,7.70
2023-04-14T18:21:44.845Z,7.70
2023-04-14T18:26:44.754Z,7.70
2023-04-14T18:29:12.971Z,7.70
2023-04-14T18:31:42.700Z,7.70
2023-04-14T18:34:12.617Z,7.70
2023-04-14T18:36:40.875Z,7.70
2023-04-14T18:39:09.073Z,7.60
2023-04-14T18:41:37.233Z,7.60
2023-04-14T18:44:05.598Z,7.60
2023-04-14T18:46:34.008Z,7.60
2023-04-14T18:49:03.733Z,7.60
2023-04-14T18:51:33.098Z,7.60
2023-04-14T18:54:01.275Z,7.50
2023-04-14T18:56:30.786Z,7.50
2023-04-14T18:59:00.039Z,7.50
2023-04-14T19:01:28.582Z,7.50
2023-04-14T19:03:57.718Z,7.40
2023-04-14T19:06:27.765Z,7.40
2023-04-14T19:08:56.051Z,7.40
2023-04-14T19:11:25.287Z,7.40
2023-04-14T19:13:54.414Z,7.40
2023-04-14T19:16:22.741Z,7.40
2023-04-14T19:18:50.931Z,7.40
2023-04-14T19:21:19.037Z,7.30
2023-04-14T19:23:48.929Z,7.30
2023-04-14T19:26:18.285Z,7.30
2023-04-14T19:28:46.589Z,7.30
2023-04-14T19:31:15.739Z,7.20
2023-04-14T19:33:44.329Z,7.20
2023-04-14T19:36:14.297Z,7.20
2023-04-14T19:38:42.585Z,7.20
2023-04-14T19:41:12.330Z,7.20
2023-04-14T19:43:40.460Z,7.20
2023-04-14T19:46:10.271Z,7.20
2023-04-14T19:48:39.286Z,7.20
2023-04-14T19:51:07.379Z,7.20
2023-04-14T19:53:36.460Z,7.10
2023-04-14T19:56:05.671Z,7.10
2023-04-14T19:58:36.384Z,7.10
2023-04-14T20:01:05.786Z,7.10
2023-04-14T20:03:34.912Z,7.10
2023-04-14T20:06:03.305Z,7.10
2023-04-14T20:08:32.336Z,7.10
2023-04-14T20:11:00.437Z,7.00
2023-04-14T20:13:31.188Z,7.00
2023-04-14T20:16:01.547Z,7.00
2023-04-14T20:18:29.612Z,7.00
2023-04-14T20:20:58.644Z,7.00
2023-04-14T20:23:27.005Z,7.00
2023-04-14T20:25:56.105Z,7.00
2023-04-14T20:28:25.956Z,7.00
2023-04-14T20:30:55.643Z,6.90
2023-04-14T20:33:25.645Z,6.90
2023-04-14T20:35:54.245Z,6.90
2023-04-14T20:38:23.556Z,6.90
2023-04-14T20:40:51.789Z,6.90
2023-04-14T20:43:19.866Z,6.90
2023-04-14T20:45:49.859Z,6.90
2023-04-14T20:48:18.523Z,6.80
2023-04-14T20:50:50.062Z,6.80
2023-04-14T20:53:18.451Z,6.80
2023-04-14T20:55:46.507Z,6.80
2023-04-14T20:58:14.935Z,6.80
2023-04-14T21:00:43.484Z,6.80
2023-04-14T21:03:12.095Z,6.70
2023-04-14T21:05:40.634Z,6.70
2023-04-14T21:08:10.581Z,6.70
2023-04-14T21:11:02.145Z,6.70
2023-04-14T21:15:28.238Z,6.70
2023-04-14T21:16:16.339Z,6.70
2023-04-14T21:18:44.514Z,6.70
2023-04-14T21:21:13.494Z,6.70
2023-04-14T21:23:42.980Z,6.60
2023-04-14T21:26:13.193Z,6.60
2023-04-14T21:28:41.952Z,6.60
2023-04-14T21:31:11.466Z,6.60
2023-04-14T21:33:41.631Z,6.50
2023-04-14T21:36:10.879Z,6.60
2023-04-14T21:38:39.624Z,6.50
2023-04-14T21:41:09.617Z,6.50
2023-04-14T21:43:39.516Z,6.50
2023-04-14T21:46:08.441Z,6.50
2023-04-14T21:48:37.122Z,6.50
2023-04-14T21:51:05.348Z,6.50
2023-04-14T21:53:33.785Z,6.50
2023-04-14T21:56:09.864Z,6.50
2023-04-14T21:58:40.684Z,6.50
2023-04-14T22:01:09.655Z,6.50
2023-04-14T22:03:41.631Z,6.50
2023-04-14T22:06:11.307Z,6.50
2023-04-14T22:08:40.306Z,6.50
2023-04-14T22:11:08.786Z,6.50
2023-04-14T22:13:36.917Z,6.50
2023-04-14T22:16:07.079Z,6.50
2023-04-14T22:18:35.902Z,6.50
2023-04-14T22:21:04.846Z,6.50
2023-04-14T22:23:33.120Z,6.50
2023-04-14T22:26:01.496Z,6.50
2023-04-14T22:28:29.570Z,6.50
2023-04-14T22:30:57.679Z,6.50
2023-04-14T22:33:27.333Z,6.50
2023-04-14T22:35:55.739Z,6.50
2023-04-14T22:38:24.179Z,6.50
2023-04-14T22:40:52.678Z,6.50
2023-04-14T22:43:21.079Z,6.50
2023-04-14T22:45:49.443Z,6.50
2023-04-14T22:48:17.536Z,6.50
2023-04-14T22:50:47.068Z,6.50
2023-04-14T22:53:15.060Z,6.50
2023-04-14T22:55:44.179Z,6.50
2023-04-14T22:58:16.574Z,6.50
2023-04-14T23:00:45.551Z,6.50
2023-04-14T23:03:13.949Z,6.50
2023-04-14T23:05:42.214Z,6.50
2023-04-14T23:08:11.746Z,6.50
2023-04-14T23:10:39.838Z,6.50
2023-04-14T23:13:08.180Z,6.50
2023-04-14T23:15:36.514Z,6.40
2023-04-14T23:18:05.606Z,6.40
2023-04-14T23:20:33.794Z,6.40
2023-04-14T23:23:02.671Z,6.40
2023-04-14T23:25:32.211Z,6.40
2023-04-14T23:28:00.330Z,6.40
2023-04-14T23:30:28.825Z,6.40
2023-04-14T23:32:57.062Z,6.40
2023-04-14T23:35:25.600Z,6.40
2023-04-14T23:37:53.611Z,6.40
2023-04-14T23:40:22.562Z,6.40
2023-04-14T23:42:51.951Z,6.40
2023-04-14T23:45:20.032Z,6.40
2023-04-14T23:47:48.129Z,6.40
2023-04-14T23:50:16.233Z,6.40
2023-04-14T23:52:45.048Z,6.40
2023-04-14T23:55:13.491Z,6.40
2023-04-14T23:57:42.411Z,6.40
